CZW weather

Częstochowa-Rudniki
Częstochowa, Silesia, Poland

Public forecast

Using degrees Celsius for public forecast. Weather courtesy of forecast.io.

METAR (pilot weather report)

Closest report is Katowice International Airport, 25.1 nm (46.5 km) S. Retrieved 2019/03/27 00:00 UTC (11 minutes ago):

EPKT 270000Z 31004KT 9999 FEW020 00/M02 Q1024

TAF (pilot weather forecast)

Forecast is more than 12 hours old.

Closest forecast is Katowice International Airport, 25.1 nm (46.5 km) S. Retrieved 2019/03/26 00:33 UTC (24 hours ago):

TAF EPKT 262330Z 2700/2724 32006KT 9999 SCT040 TEMPO 2700/2706 2500 BR BKN008 PROB40 2702/2706 0500 FZFG BKN003 BECMG 2722/2724 4000 RA BR BKN012